Terminal Aerodrome Forecast
Issued by NWS

Home | Current Version | Previous Version | Text Only | Print | Product List | Glossary On
Versions: 1 2 3 4 5 6 7 8 9 10 11 12 13 14 15 16 17 18 19
000
FTUS43 KAPX 280853 AAA
TAFTVC
TAF AMD
KTVC 280853Z 2809/2906 27008KT P6SM VCSH BKN035
      TEMPO 2809/2810 BKN029
     FM281600 27008KT P6SM BKN035
     FM282000 28008KT P6SM -SHSN BKN028
     FM290100 33007KT P6SM -SHSN BKN028=

USA.gov is the U.S. government's official web portal to all federal, state and local government web resources and services.